Marion Dufresne — FNIN — position and weather

sailwx.info

Track history (hours):
 
Tides and Currents Weather Stations Pressure Air Temp Water Temp Dewpoint Dewpoint Depression Visibility Wind Speed Wind Dir Waves Ship Positions

Oceanographic research ship Marion Dufresne (France)

Detailed information on ship capabilities available from University of Delaware's Ocean Information Center and ARCUS's ALIAS (Arctic Logistics Information and Support) project.

Last reported at 2015-Aug-04 17:31 UTC. Time now 2015-Aug-04 17:54 UTC.
Position N 37°28' W 010°16'.

Length 120 m; beam 21 m.

Type: Ship (hazmat cat A). MMSI: 227235000.

Date/timePositionNaut miles runAvg speedWind from/ knotsBaromVisibWave heightAir tempDewpointWater temp
2015-Aug-04 17:31N 37°28' W 010°16'1413.9
2015-Aug-04 16:31N 37°40' W 010°08'2814.1
2015-Aug-04 14:33N 38°04' W 009°50'1414.3
2015-Aug-04 13:33N 38°17' W 009°42'1414.1
2015-Aug-04 12:33N 38°29' W 009°33'1313.2
2015-Aug-04 11:33N 38°40' W 009°24'0 0.1
2015-Aug-04 10:33N 38°40' W 009°24'0 0.1
2015-Aug-04 09:33N 38°40' W 009°24'0 0.1
2015-Aug-04 08:33N 38°40' W 009°24'4 3.7
2015-Aug-04 07:33N 38°39' W 009°29'7 6.9
2015-Aug-04 06:33N 38°38' W 009°37'3 2.7
2015-Aug-04 05:33N 38°38' W 009°41'6 5.5
2015-Aug-04 04:33N 38°43' W 009°43'8 8.0
2015-Aug-04 03:33N 38°51' W 009°44'8 7.6
2015-Aug-04 02:33N 38°58' W 009°47'7 7.0
2015-Aug-04 01:33N 39°05' W 009°51'7 7.5
2015-Aug-04 00:33N 39°11' W 009°56'7 7.2
2015-Aug-03 23:33N 39°17' W 010°01'4 4.3
2015-Aug-03 22:33N 39°14' W 009°56'3 2.7
2015-Aug-03 21:33N 39°17' W 009°57'9 8.7
2015-Aug-03 20:33N 39°25' W 010°02'44811.2
2015-Aug-02 04:32N 46°33' W 007°01'54 7.5
2015-Aug-01 21:23N 47°17' W 006°15'1 0.8
2015-Aug-01 20:33N 47°16' W 006°16'5 4.5
2015-Aug-01 19:30N 47°13' W 006°20'1 0.6
2015-Aug-01 18:33N 47°13' W 006°21'1 1.0
2015-Aug-01 17:32N 47°12' W 006°22'0 0.3
2015-Aug-01 16:26N 47°12' W 006°22'1 0.3
2015-Aug-01 14:33N 47°11' W 006°22'86 5.1
2015-Jul-31 21:33N 48°15' W 004°56'9 9.0
2015-Jul-31 20:33N 48°18' W 004°43'1110.7
2015-Jul-31 19:33N 48°22' W 004°28'1 1.3
2015-Jul-31 18:31N 48°23' W 004°27'0 0.0
2015-Jul-31 17:31N 48°23' W 004°27'0 0.0
2015-Jul-31 16:33N 48°23' W 004°27'0 0.0
2015-Jul-31 15:33N 48°23' W 004°27'0 0.0
2015-Jul-31 14:32N 48°23' W 004°27'0 0.0
2015-Jul-31 13:32N 48°23' W 004°27'0 0.0
2015-Jul-31 12:31N 48°23' W 004°27'0 0.0
2015-Jul-31 11:31N 48°23' W 004°27'0 0.0
2015-Jul-31 10:28N 48°23' W 004°27'0 0.0
2015-Jul-31 09:33N 48°23' W 004°27'0 0.0
2015-Jul-31 08:33N 48°23' W 004°27'0 0.0
2015-Jul-31 07:32N 48°23' W 004°27'0 0.0
2015-Jul-31 06:29N 48°23' W 004°27'0 0.0
2015-Jul-31 05:31N 48°23' W 004°27'0 0.0
2015-Jul-31 04:25N 48°23' W 004°27'0 0.0
2015-Jul-31 03:21N 48°23' W 004°27'0 0.0
2015-Jul-31 02:33N 48°23' W 004°27'0 0.0
2015-Jul-31 01:33N 48°23' W 004°27'0 0.0
2015-Jul-31 00:32N 48°23' W 004°27'0 0.0
2015-Jul-30 23:32N 48°23' W 004°27'0 0.0
2015-Jul-30 22:31N 48°23' W 004°27'0 0.0
2015-Jul-30 21:31N 48°23' W 004°27'0 0.0
2015-Jul-30 20:33N 48°23' W 004°27'0 0.0
2015-Jul-30 19:33N 48°23' W 004°27'0 0.0
2015-Jul-30 18:33N 48°23' W 004°27'0 0.0
2015-Jul-30 17:32N 48°23' W 004°27'0 0.0
2015-Jul-30 16:32N 48°23' W 004°27'0 0.0
2015-Jul-30 15:31N 48°23' W 004°27'0 0.0
2015-Jul-30 14:31N 48°23' W 004°27'0 0.0
2015-Jul-30 13:33N 48°23' W 004°27'0 0.0
2015-Jul-30 12:33N 48°23' W 004°27'0 0.0
2015-Jul-30 11:33N 48°23' W 004°27'0 0.0
2015-Jul-30 10:33N 48°23' W 004°27'0 0.0
2015-Jul-30 09:33N 48°23' W 004°27'0 0.0
2015-Jul-30 08:33N 48°23' W 004°27'0 0.0
2015-Jul-30 07:33N 48°23' W 004°27'0 0.0
2015-Jul-30 06:33N 48°23' W 004°27'0 0.0
2015-Jul-30 05:33N 48°23' W 004°27'4 4.2
2015-Jul-30 04:33N 48°21' W 004°33'9 9.1
2015-Jul-30 03:33N 48°17' W 004°45'7 7.5
2015-Jul-30 02:33N 48°16' W 004°56'8 8.2
2015-Jul-30 01:33N 48°16' W 005°08'25210.5
2015-Jul-29 01:33N 50°32' E 000°18'1716.8
2015-Jul-29 00:33N 50°39' E 000°43'2015.8
2015-Jul-28 23:16N 50°50' E 001°10'1014.4
2015-Jul-28 22:33N 50°57' E 001°21'1313.3
2015-Jul-28 21:33N 51°06' E 001°36'1110.8
2015-Jul-28 20:33N 51°02' E 001°52'1010.3
2015-Jul-28 19:33N 51°03' E 002°09'8 7.4
2015-Jul-28 18:33N 51°03' E 002°21'1 0.7
2015-Jul-28 17:33N 51°03' E 002°21'  
Track history (hours):
 
Tides and Currents Weather Stations Pressure Air Temp Water Temp Dewpoint Dewpoint Depression Visibility Wind Speed Wind Dir Waves Ship Positions

Oceanographic research ship Marion Dufresne (France)

Detailed information on ship capabilities available from University of Delaware's Ocean Information Center and ARCUS's ALIAS (Arctic Logistics Information and Support) project.

Last reported at 2015-Aug-04 17:31 UTC. Time now 2015-Aug-04 17:54 UTC.
Position N 37°28' W 010°16'.

Length 120 m; beam 21 m.

Type: Ship (hazmat cat A). MMSI: 227235000.

Date/timePositionNaut miles runAvg speedWind from/ knotsBaromVisibWave heightAir tempDewpointWater temp
2015-Aug-04 17:31N 37°28' W 010°16'1413.9
2015-Aug-04 16:31N 37°40' W 010°08'2814.1
2015-Aug-04 14:33N 38°04' W 009°50'1414.3
2015-Aug-04 13:33N 38°17' W 009°42'1414.1
2015-Aug-04 12:33N 38°29' W 009°33'1313.2
2015-Aug-04 11:33N 38°40' W 009°24'0 0.1
2015-Aug-04 10:33N 38°40' W 009°24'0 0.1
2015-Aug-04 09:33N 38°40' W 009°24'0 0.1
2015-Aug-04 08:33N 38°40' W 009°24'4 3.7
2015-Aug-04 07:33N 38°39' W 009°29'7 6.9
2015-Aug-04 06:33N 38°38' W 009°37'3 2.7
2015-Aug-04 05:33N 38°38' W 009°41'6 5.5
2015-Aug-04 04:33N 38°43' W 009°43'8 8.0
2015-Aug-04 03:33N 38°51' W 009°44'8 7.6
2015-Aug-04 02:33N 38°58' W 009°47'7 7.0
2015-Aug-04 01:33N 39°05' W 009°51'7 7.5
2015-Aug-04 00:33N 39°11' W 009°56'7 7.2
2015-Aug-03 23:33N 39°17' W 010°01'4 4.3
2015-Aug-03 22:33N 39°14' W 009°56'3 2.7
2015-Aug-03 21:33N 39°17' W 009°57'9 8.7
2015-Aug-03 20:33N 39°25' W 010°02'44811.2
2015-Aug-02 04:32N 46°33' W 007°01'54 7.5
2015-Aug-01 21:23N 47°17' W 006°15'1 0.8
2015-Aug-01 20:33N 47°16' W 006°16'5 4.5
2015-Aug-01 19:30N 47°13' W 006°20'1 0.6
2015-Aug-01 18:33N 47°13' W 006°21'1 1.0
2015-Aug-01 17:32N 47°12' W 006°22'0 0.3
2015-Aug-01 16:26N 47°12' W 006°22'1 0.3
2015-Aug-01 14:33N 47°11' W 006°22'86 5.1
2015-Jul-31 21:33N 48°15' W 004°56'9 9.0
2015-Jul-31 20:33N 48°18' W 004°43'1110.7
2015-Jul-31 19:33N 48°22' W 004°28'1 1.3
2015-Jul-31 18:31N 48°23' W 004°27'0 0.0
2015-Jul-31 17:31N 48°23' W 004°27'0 0.0
2015-Jul-31 16:33N 48°23' W 004°27'0 0.0
2015-Jul-31 15:33N 48°23' W 004°27'0 0.0
2015-Jul-31 14:32N 48°23' W 004°27'0 0.0
2015-Jul-31 13:32N 48°23' W 004°27'0 0.0
2015-Jul-31 12:31N 48°23' W 004°27'0 0.0
2015-Jul-31 11:31N 48°23' W 004°27'0 0.0
2015-Jul-31 10:28N 48°23' W 004°27'0 0.0
2015-Jul-31 09:33N 48°23' W 004°27'0 0.0
2015-Jul-31 08:33N 48°23' W 004°27'0 0.0
2015-Jul-31 07:32N 48°23' W 004°27'0 0.0
2015-Jul-31 06:29N 48°23' W 004°27'0 0.0
2015-Jul-31 05:31N 48°23' W 004°27'0 0.0
2015-Jul-31 04:25N 48°23' W 004°27'0 0.0
2015-Jul-31 03:21N 48°23' W 004°27'0 0.0
2015-Jul-31 02:33N 48°23' W 004°27'0 0.0
2015-Jul-31 01:33N 48°23' W 004°27'0 0.0
2015-Jul-31 00:32N 48°23' W 004°27'0 0.0
2015-Jul-30 23:32N 48°23' W 004°27'0 0.0
2015-Jul-30 22:31N 48°23' W 004°27'0 0.0
2015-Jul-30 21:31N 48°23' W 004°27'0 0.0
2015-Jul-30 20:33N 48°23' W 004°27'0 0.0
2015-Jul-30 19:33N 48°23' W 004°27'0 0.0
2015-Jul-30 18:33N 48°23' W 004°27'0 0.0
2015-Jul-30 17:32N 48°23' W 004°27'0 0.0
2015-Jul-30 16:32N 48°23' W 004°27'0 0.0
2015-Jul-30 15:31N 48°23' W 004°27'0 0.0
2015-Jul-30 14:31N 48°23' W 004°27'0 0.0
2015-Jul-30 13:33N 48°23' W 004°27'0 0.0
2015-Jul-30 12:33N 48°23' W 004°27'0 0.0
2015-Jul-30 11:33N 48°23' W 004°27'0 0.0
2015-Jul-30 10:33N 48°23' W 004°27'0 0.0
2015-Jul-30 09:33N 48°23' W 004°27'0 0.0
2015-Jul-30 08:33N 48°23' W 004°27'0 0.0
2015-Jul-30 07:33N 48°23' W 004°27'0 0.0
2015-Jul-30 06:33N 48°23' W 004°27'0 0.0
2015-Jul-30 05:33N 48°23' W 004°27'4 4.2
2015-Jul-30 04:33N 48°21' W 004°33'9 9.1
2015-Jul-30 03:33N 48°17' W 004°45'7 7.5
2015-Jul-30 02:33N 48°16' W 004°56'8 8.2
2015-Jul-30 01:33N 48°16' W 005°08'25210.5
2015-Jul-29 01:33N 50°32' E 000°18'1716.8
2015-Jul-29 00:33N 50°39' E 000°43'2015.8
2015-Jul-28 23:16N 50°50' E 001°10'1014.4
2015-Jul-28 22:33N 50°57' E 001°21'1313.3
2015-Jul-28 21:33N 51°06' E 001°36'1110.8
2015-Jul-28 20:33N 51°02' E 001°52'1010.3
2015-Jul-28 19:33N 51°03' E 002°09'8 7.4
2015-Jul-28 18:33N 51°03' E 002°21'1 0.7
2015-Jul-28 17:33N 51°03' E 002°21'  

Dump ship's entire track history